Time;durP1;ratioP1;P1;durP2;ratioP2;P2;SDS_P1;SDS_P2;PMS_P1;PMS_P2;Temp;Humidity;BMP_temperature;BMP_pressure;BME280_temperature;BME280_humidity;BME280_pressure;Samples;Min_cycle;Max_cycle;Signal;HPM_P1;HPM_P2
2023/01/19 00:02:23;;;;;;;;;;;4.60;92.10;;;;;;5035718;28;19938;-87
2023/01/19 00:04:49;;;;;;;;;;;4.50;92.00;;;;;;5035607;28;19941;-87
2023/01/19 00:07:15;;;;;;;;;;;4.40;92.20;;;;;;5035587;28;19939;-87
2023/01/19 00:09:40;;;;;;;;;;;4.50;92.30;;;;;;5035592;28;19947;-87
2023/01/19 00:12:06;;;;;;;;;;;4.60;92.00;;;;;;5015993;28;20311;-87
2023/01/19 00:14:31;;;;;;;;;;;4.50;91.60;;;;;;5015544;28;20450;-87
2023/01/19 00:16:57;;;;;;;;;;;4.60;91.50;;;;;;5015635;28;20045;-87
2023/01/19 00:19:22;;;;;;;;;;;4.70;91.20;;;;;;5015598;28;19947;-87
2023/01/19 00:21:48;;;;;;;;;;;4.60;91.30;;;;;;5015445;28;19957;-87
2023/01/19 00:24:13;;;;;;;;;;;4.60;91.30;;;;;;5015498;28;19950;-87
2023/01/19 00:26:41;;;;;;;;;;;4.60;91.20;;;;;;5015464;28;19945;-87
2023/01/19 00:29:07;;;;;;;;;;;4.70;91.00;;;;;;5015441;28;20059;-87
2023/01/19 00:31:33;;;;;;;;;;;4.70;90.60;;;;;;5016094;28;19985;-87
2023/01/19 00:33:58;;;;;;;;;;;4.80;90.20;;;;;;5034501;28;19946;-86
2023/01/19 00:36:24;;;;;;;;;;;4.80;89.90;;;;;;5035035;28;19984;-87
2023/01/19 00:38:50;;;;;;;;;;;4.80;89.70;;;;;;5035023;28;20005;-87
2023/01/19 00:41:16;;;;;;;;;;;4.80;89.70;;;;;;5034911;28;19961;-87
2023/01/19 00:43:41;;;;;;;;;;;4.80;89.60;;;;;;5035158;28;19935;-87
2023/01/19 00:46:07;;;;;;;;;;;4.80;89.60;;;;;;5034894;28;20031;-87
2023/01/19 00:48:32;;;;;;;;;;;4.90;89.50;;;;;;5034817;28;19938;-87
2023/01/19 00:50:58;;;;;;;;;;;4.80;89.50;;;;;;5034749;28;19939;-86
2023/01/19 00:53:24;;;;;;;;;;;4.70;89.80;;;;;;5032253;28;20408;-87
2023/01/19 00:55:50;;;;;;;;;;;4.60;89.80;;;;;;5014766;28;19990;-87
2023/01/19 00:58:16;;;;;;;;;;;4.60;90.20;;;;;;5014590;28;20324;-87
2023/01/19 01:00:41;;;;;;;;;;;4.50;90.20;;;;;;5014738;28;19974;-87
2023/01/19 01:03:07;;;;;;;;;;;4.60;89.90;;;;;;5027426;28;19960;-87
2023/01/19 01:05:32;;;;;;;;;;;4.60;90.10;;;;;;5034181;28;19960;-87
2023/01/19 01:07:58;;;;;;;;;;;4.60;90.10;;;;;;5034443;28;19937;-87
2023/01/19 01:10:28;;;;;;;;;;;4.40;89.90;;;;;;5034418;28;20298;-87
2023/01/19 01:12:53;;;;;;;;;;;4.50;90.00;;;;;;5045219;22;19971;-87
2023/01/19 01:15:20;;;;;;;;;;;4.50;90.20;;;;;;5053935;28;19951;-87
2023/01/19 01:17:46;;;;;;;;;;;4.60;90.30;;;;;;5053673;28;19941;-87
2023/01/19 01:20:15;;;;;;;;;;;4.60;90.10;;;;;;5053767;28;20354;-87
2023/01/19 01:22:50;;;;;;;;;;;4.60;90.10;;;;;;5054065;28;20373;-87
2023/01/19 01:25:17;;;;;;;;;;;4.60;89.90;;;;;;5054063;28;19947;-86
2023/01/19 01:27:42;;;;;;;;;;;4.60;89.70;;;;;;5053782;28;19973;-87
2023/01/19 01:30:09;;;;;;;;;;;4.60;89.70;;;;;;5053900;28;20360;-87
2023/01/19 01:32:35;;;;;;;;;;;4.50;89.70;;;;;;5053811;28;19966;-87
2023/01/19 01:35:00;;;;;;;;;;;4.40;89.90;;;;;;5053854;28;19966;-87
2023/01/19 01:37:26;;;;;;;;;;;4.30;90.20;;;;;;5053798;28;19938;-87
2023/01/19 01:39:52;;;;;;;;;;;4.20;90.90;;;;;;5053339;28;20368;-86
2023/01/19 01:42:19;;;;;;;;;;;4.20;91.60;;;;;;5053997;28;20401;-87
2023/01/19 01:44:52;;;;;;;;;;;4.20;91.90;;;;;;5053712;28;19977;-87
2023/01/19 01:47:36;;;;;;;;;;;4.20;92.20;;;;;;5053670;28;20015;-86
2023/01/19 01:50:02;;;;;;;;;;;4.20;92.30;;;;;;5053367;28;19947;-86
2023/01/19 01:52:28;;;;;;;;;;;4.20;92.60;;;;;;5053500;28;19969;-87
2023/01/19 01:54:54;;;;;;;;;;;4.20;92.60;;;;;;5053507;28;20002;-86
2023/01/19 01:57:19;;;;;;;;;;;4.20;92.90;;;;;;5053411;28;20430;-87
2023/01/19 01:59:47;;;;;;;;;;;4.20;93.10;;;;;;5036671;28;19994;-87
2023/01/19 02:05:15;;;;;;;;;;;4.30;93.00;;;;;;5033778;28;19948;-87
2023/01/19 02:13:22;;;;;;;;;;;4.40;91.90;;;;;;5033226;28;20021;-86
2023/01/19 02:15:48;;;;;;;;;;;4.40;91.80;;;;;;5015546;28;19949;-87
2023/01/19 02:18:14;;;;;;;;;;;4.40;91.90;;;;;;5033490;28;19948;-87
2023/01/19 02:20:41;;;;;;;;;;;4.30;91.90;;;;;;5033095;28;19967;-87
2023/01/19 02:23:11;;;;;;;;;;;4.30;92.10;;;;;;5033173;28;19939;-86
2023/01/19 02:25:39;;;;;;;;;;;4.30;92.30;;;;;;5033141;28;20409;-87
2023/01/19 02:28:05;;;;;;;;;;;4.20;92.30;;;;;;5034992;28;19963;-87
2023/01/19 02:30:31;;;;;;;;;;;4.20;92.30;;;;;;5052976;28;20363;-87
2023/01/19 02:32:57;;;;;;;;;;;4.20;92.30;;;;;;5052997;28;19981;-87
2023/01/19 02:35:23;;;;;;;;;;;4.20;92.00;;;;;;5052987;28;19937;-87
2023/01/19 02:37:49;;;;;;;;;;;4.20;91.90;;;;;;5052732;28;19948;-87
2023/01/19 02:40:18;;;;;;;;;;;4.10;91.90;;;;;;5033032;28;19980;-87
2023/01/19 02:42:51;;;;;;;;;;;4.10;91.80;;;;;;5034102;28;19946;-86
2023/01/19 02:45:18;;;;;;;;;;;4.10;91.70;;;;;;5032964;28;19942;-87
2023/01/19 02:47:45;;;;;;;;;;;4.00;91.60;;;;;;5032969;28;19938;-87
2023/01/19 02:50:38;;;;;;;;;;;4.10;91.40;;;;;;5051562;28;19981;-86
2023/01/19 02:53:27;;;;;;;;;;;4.20;91.10;;;;;;5053034;28;19954;-87
2023/01/19 02:55:56;;;;;;;;;;;4.20;91.10;;;;;;5052663;28;20025;-87
2023/01/19 02:58:24;;;;;;;;;;;4.20;91.10;;;;;;5052118;28;19961;-86
2023/01/19 03:00:50;;;;;;;;;;;4.20;91.10;;;;;;5052647;28;19943;-87
2023/01/19 03:03:18;;;;;;;;;;;4.20;90.90;;;;;;5052719;28;20033;-87
2023/01/19 03:05:52;;;;;;;;;;;4.30;90.80;;;;;;5052655;28;19936;-86
2023/01/19 03:08:23;;;;;;;;;;;4.30;90.50;;;;;;5036052;28;20003;-87
2023/01/19 03:11:02;;;;;;;;;;;4.30;90.20;;;;;;5032721;28;20032;-86
2023/01/19 03:13:47;;;;;;;;;;;4.20;90.30;;;;;;5032492;28;19987;-86
2023/01/19 03:16:12;;;;;;;;;;;4.20;90.50;;;;;;5032683;28;20507;-86
2023/01/19 03:18:41;;;;;;;;;;;4.10;90.60;;;;;;5051712;28;19978;-86
2023/01/19 03:21:08;;;;;;;;;;;4.10;90.80;;;;;;5055409;28;20024;-87
2023/01/19 03:23:36;;;;;;;;;;;4.10;90.70;;;;;;5056332;28;19940;-87
2023/01/19 03:26:03;;;;;;;;;;;4.00;90.70;;;;;;5056300;28;20433;-87
2023/01/19 03:28:29;;;;;;;;;;;4.00;91.00;;;;;;5038373;28;19949;-86
2023/01/19 03:31:00;;;;;;;;;;;4.00;91.10;;;;;;5036288;28;19985;-87
2023/01/19 03:33:29;;;;;;;;;;;4.00;91.40;;;;;;5036201;28;19942;-86
2023/01/19 03:36:04;;;;;;;;;;;4.10;91.40;;;;;;5036249;28;19940;-87
2023/01/19 03:38:33;;;;;;;;;;;4.10;91.70;;;;;;5053911;28;19943;-87
2023/01/19 03:41:00;;;;;;;;;;;4.10;91.70;;;;;;5055955;28;20464;-87
2023/01/19 03:43:26;;;;;;;;;;;4.10;91.70;;;;;;5055987;28;19942;-87
2023/01/19 03:45:52;;;;;;;;;;;4.10;91.60;;;;;;5055973;28;19943;-87
2023/01/19 03:48:18;;;;;;;;;;;4.10;91.60;;;;;;5047011;28;20023;-87
2023/01/19 03:50:44;;;;;;;;;;;4.00;91.80;;;;;;5055559;28;19945;-87
2023/01/19 03:53:11;;;;;;;;;;;3.90;91.90;;;;;;5055975;28;19983;-87
2023/01/19 03:55:38;;;;;;;;;;;3.90;92.10;;;;;;5055700;28;19990;-87
2023/01/19 03:58:04;;;;;;;;;;;3.90;92.10;;;;;;5041668;28;20408;-86
2023/01/19 04:00:29;;;;;;;;;;;3.90;92.20;;;;;;5035913;28;20068;-86
2023/01/19 04:02:55;;;;;;;;;;;3.90;92.20;;;;;;5035712;28;19937;-86
2023/01/19 04:05:21;;;;;;;;;;;4.00;91.90;;;;;;5035640;28;19945;-87
2023/01/19 04:07:47;;;;;;;;;;;4.10;91.70;;;;;;5037259;28;19949;-87
2023/01/19 04:10:14;;;;;;;;;;;4.10;91.80;;;;;;5055459;28;19944;-87
2023/01/19 04:12:40;;;;;;;;;;;4.10;91.80;;;;;;5055534;28;19941;-87
2023/01/19 04:15:06;;;;;;;;;;;4.10;91.80;;;;;;5055413;28;20313;-87
2023/01/19 04:17:31;;;;;;;;;;;4.20;91.90;;;;;;5050544;28;20381;-87
2023/01/19 04:19:57;;;;;;;;;;;4.20;92.00;;;;;;5035251;28;19967;-87
2023/01/19 04:22:23;;;;;;;;;;;4.20;92.10;;;;;;5035358;28;20311;-86
2023/01/19 04:24:48;;;;;;;;;;;4.20;92.00;;;;;;5035286;28;19935;-87
2023/01/19 04:27:15;;;;;;;;;;;4.20;92.00;;;;;;5041006;28;19942;-87
2023/01/19 04:29:40;;;;;;;;;;;4.30;91.90;;;;;;5055097;28;19969;-87
2023/01/19 04:32:06;;;;;;;;;;;4.30;91.90;;;;;;5054414;28;20396;-87
2023/01/19 04:34:32;;;;;;;;;;;4.40;91.70;;;;;;5055034;28;20032;-87
2023/01/19 04:36:57;;;;;;;;;;;4.40;91.70;;;;;;5051117;28;19947;-87
2023/01/19 04:39:23;;;;;;;;;;;4.40;91.60;;;;;;5017226;28;19946;-87
2023/01/19 04:41:50;;;;;;;;;;;4.40;91.40;;;;;;5034899;28;20477;-87
2023/01/19 04:44:16;;;;;;;;;;;4.50;91.30;;;;;;5034916;28;19948;-87
2023/01/19 04:46:41;;;;;;;;;;;4.50;91.20;;;;;;5035894;28;19940;-87
2023/01/19 04:49:08;;;;;;;;;;;4.60;91.20;;;;;;5054714;28;19942;-87
2023/01/19 04:51:34;;;;;;;;;;;4.50;91.10;;;;;;5054693;28;20318;-87
2023/01/19 04:54:00;;;;;;;;;;;4.50;91.30;;;;;;5054560;28;20088;-87
2023/01/19 04:56:26;;;;;;;;;;;4.50;91.40;;;;;;5054747;28;19941;-87
2023/01/19 04:58:51;;;;;;;;;;;4.50;91.60;;;;;;5035420;28;20412;-87
2023/01/19 05:01:17;;;;;;;;;;;4.50;91.70;;;;;;5034532;28;19976;-87
2023/01/19 05:03:42;;;;;;;;;;;4.50;91.80;;;;;;5034546;28;20419;-87
2023/01/19 05:06:08;;;;;;;;;;;4.50;91.80;;;;;;5034518;28;19943;-87
2023/01/19 05:08:33;;;;;;;;;;;4.50;91.70;;;;;;5050363;28;20418;-87
2023/01/19 05:10:59;;;;;;;;;;;4.40;91.60;;;;;;5054331;28;20032;-87
2023/01/19 05:13:25;;;;;;;;;;;4.50;91.40;;;;;;5054124;28;19981;-87
2023/01/19 05:15:50;;;;;;;;;;;4.50;91.30;;;;;;5046659;28;19946;-87
2023/01/19 05:18:16;;;;;;;;;;;4.50;91.20;;;;;;5034204;28;20409;-87
2023/01/19 05:20:42;;;;;;;;;;;4.50;91.00;;;;;;5034137;28;19966;-87
2023/01/19 05:23:07;;;;;;;;;;;4.60;90.80;;;;;;5034175;28;20034;-88
2023/01/19 05:25:33;;;;;;;;;;;4.70;90.40;;;;;;5038484;28;20042;-87
2023/01/19 05:27:58;;;;;;;;;;;4.70;90.20;;;;;;5054061;28;19968;-87
2023/01/19 05:30:24;;;;;;;;;;;4.80;90.00;;;;;;5053648;28;20049;-87
2023/01/19 05:32:50;;;;;;;;;;;4.90;89.90;;;;;;5053920;28;19937;-87
2023/01/19 05:35:16;;;;;;;;;;;4.90;89.70;;;;;;5051661;28;19939;-87
2023/01/19 05:37:42;;;;;;;;;;;4.90;89.60;;;;;;5033815;28;19975;-88
2023/01/19 05:40:08;;;;;;;;;;;4.80;89.80;;;;;;5033813;28;19963;-87
2023/01/19 05:42:33;;;;;;;;;;;4.80;90.10;;;;;;5033583;28;19993;-87
2023/01/19 05:44:59;;;;;;;;;;;4.80;90.20;;;;;;5033060;28;19938;-87
2023/01/19 05:47:24;;;;;;;;;;;4.90;90.00;;;;;;5052733;28;19951;-87
2023/01/19 05:49:50;;;;;;;;;;;4.90;89.80;;;;;;5053635;28;19941;-87
2023/01/19 05:52:15;;;;;;;;;;;5.00;89.70;;;;;;5053496;28;20005;-88
2023/01/19 05:54:41;;;;;;;;;;;5.00;89.60;;;;;;5053393;28;19937;-87
2023/01/19 05:57:06;;;;;;;;;;;5.20;89.40;;;;;;5036358;28;20046;-87
2023/01/19 05:59:32;;;;;;;;;;;5.20;89.20;;;;;;5033491;28;20004;-88
2023/01/19 06:01:58;;;;;;;;;;;5.20;89.20;;;;;;5033382;28;20008;-88
2023/01/19 06:04:24;;;;;;;;;;;5.20;89.20;;;;;;5033435;28;19939;-88
2023/01/19 06:06:50;;;;;;;;;;;5.20;89.30;;;;;;5047438;28;19947;-88
2023/01/19 06:09:16;;;;;;;;;;;5.20;89.50;;;;;;5053280;28;19949;-87
2023/01/19 06:11:42;;;;;;;;;;;5.30;89.80;;;;;;5053108;28;19944;-88
2023/01/19 06:14:09;;;;;;;;;;;5.40;89.80;;;;;;5053056;28;19974;-88
2023/01/19 06:16:34;;;;;;;;;;;5.30;89.80;;;;;;5040996;28;19972;-88
2023/01/19 06:19:00;;;;;;;;;;;5.40;89.90;;;;;;5033270;28;20369;-88
2023/01/19 06:21:25;;;;;;;;;;;5.50;89.90;;;;;;5032973;28;20393;-88
2023/01/19 06:23:51;;;;;;;;;;;5.50;89.60;;;;;;5033191;28;19940;-87
2023/01/19 06:26:16;;;;;;;;;;;5.50;89.50;;;;;;5024428;28;19972;-87
2023/01/19 06:28:42;;;;;;;;;;;5.50;89.60;;;;;;5044343;28;19981;-88
2023/01/19 06:31:07;;;;;;;;;;;5.50;89.60;;;;;;5038705;28;19962;-87
2023/01/19 06:33:33;;;;;;;;;;;5.50;89.70;;;;;;5044450;28;20429;-87
2023/01/19 06:35:58;;;;;;;;;;;5.50;89.80;;;;;;5045084;28;20362;-87
2023/01/19 06:38:24;;;;;;;;;;;5.40;90.00;;;;;;5039137;28;19992;-88
2023/01/19 06:40:52;;;;;;;;;;;5.50;90.10;;;;;;5042652;28;19958;-87
2023/01/19 06:43:19;;;;;;;;;;;5.60;90.20;;;;;;5037571;28;19991;-87
2023/01/19 06:45:44;;;;;;;;;;;5.80;90.00;;;;;;5040145;28;19950;-88
2023/01/19 06:48:10;;;;;;;;;;;6.00;89.20;;;;;;5048574;28;19946;-88
2023/01/19 06:50:35;;;;;;;;;;;6.00;88.10;;;;;;5022857;28;19953;-87
2023/01/19 06:53:01;;;;;;;;;;;5.90;88.10;;;;;;5036274;28;20000;-87
2023/01/19 06:55:26;;;;;;;;;;;5.70;88.50;;;;;;5043697;28;20079;-87
2023/01/19 06:57:58;;;;;;;;;;;5.60;88.90;;;;;;5042480;28;20406;-88
2023/01/19 07:00:24;;;;;;;;;;;5.40;89.20;;;;;;5027031;28;19970;-88
2023/01/19 07:02:50;;;;;;;;;;;5.30;89.90;;;;;;5040850;28;19961;-88
2023/01/19 07:05:15;;;;;;;;;;;5.30;90.00;;;;;;5045303;28;20416;-88
2023/01/19 07:07:42;;;;;;;;;;;5.30;89.90;;;;;;5047424;28;20320;-88
2023/01/19 07:10:10;;;;;;;;;;;5.30;89.90;;;;;;5038572;28;19942;-88
2023/01/19 07:12:39;;;;;;;;;;;5.20;90.00;;;;;;5022129;28;20023;-89
2023/01/19 07:15:05;;;;;;;;;;;5.20;90.10;;;;;;5041023;28;19974;-88
2023/01/19 07:17:31;;;;;;;;;;;5.20;90.30;;;;;;5027526;28;19972;-88
2023/01/19 07:19:56;;;;;;;;;;;5.10;90.60;;;;;;5053674;28;20314;-88
2023/01/19 07:22:22;;;;;;;;;;;5.10;90.70;;;;;;5056595;28;19976;-89
2023/01/19 07:24:47;;;;;;;;;;;5.40;90.60;;;;;;5028934;28;20233;-88
2023/01/19 07:27:15;;;;;;;;;;;5.40;90.20;;;;;;5043152;28;19943;-88
2023/01/19 07:29:41;;;;;;;;;;;5.40;89.90;;;;;;5040232;28;19937;-89
2023/01/19 07:32:06;;;;;;;;;;;5.30;90.20;;;;;;5049052;28;19940;-88
2023/01/19 07:34:32;;;;;;;;;;;5.40;90.20;;;;;;5029199;28;19941;-88
2023/01/19 07:36:57;;;;;;;;;;;5.40;90.50;;;;;;5049943;28;21904;-88
2023/01/19 07:39:23;;;;;;;;;;;5.40;90.50;;;;;;5042982;28;20383;-88
2023/01/19 07:41:48;;;;;;;;;;;5.40;90.50;;;;;;5038873;28;20460;-89
2023/01/19 07:44:14;;;;;;;;;;;5.40;90.70;;;;;;5040879;28;19973;-88
2023/01/19 07:46:40;;;;;;;;;;;5.40;90.80;;;;;;5022829;28;19946;-88
2023/01/19 07:49:05;;;;;;;;;;;5.40;91.00;;;;;;5041201;28;20389;-88
2023/01/19 07:51:31;;;;;;;;;;;5.50;91.00;;;;;;5038492;28;19945;-88
2023/01/19 07:53:57;;;;;;;;;;;5.50;90.90;;;;;;5043982;28;20430;-88
2023/01/19 07:56:23;;;;;;;;;;;5.50;90.90;;;;;;5036810;28;19941;-88
2023/01/19 07:58:51;;;;;;;;;;;5.70;90.70;;;;;;5042164;28;19949;-88
2023/01/19 08:01:16;;;;;;;;;;;5.70;90.30;;;;;;5030989;28;19986;-88
2023/01/19 08:03:42;;;;;;;;;;;5.70;90.10;;;;;;5049633;28;19971;-88
2023/01/19 08:06:16;;;;;;;;;;;5.70;90.10;;;;;;5039294;28;20506;-88
2023/01/19 08:08:42;;;;;;;;;;;5.70;90.20;;;;;;5046969;28;19996;-88
2023/01/19 08:11:08;;;;;;;;;;;5.70;90.20;;;;;;5038539;28;19943;-88
2023/01/19 08:13:33;;;;;;;;;;;5.70;90.30;;;;;;5037701;28;20099;-88
2023/01/19 08:15:59;;;;;;;;;;;5.80;90.20;;;;;;5044439;28;19947;-88
2023/01/19 08:18:24;;;;;;;;;;;5.80;89.80;;;;;;5041153;28;19983;-88
2023/01/19 08:20:51;;;;;;;;;;;5.90;89.80;;;;;;5044141;28;19962;-88
2023/01/19 08:23:17;;;;;;;;;;;5.90;89.90;;;;;;5038625;28;19947;-88
2023/01/19 08:25:43;;;;;;;;;;;6.00;90.00;;;;;;5046520;28;19948;-88
2023/01/19 08:28:10;;;;;;;;;;;6.10;89.70;;;;;;5038923;28;19950;-88
2023/01/19 08:30:37;;;;;;;;;;;6.20;89.50;;;;;;5042762;28;20427;-88
2023/01/19 08:33:03;;;;;;;;;;;6.30;88.90;;;;;;5029296;28;20473;-88
2023/01/19 08:35:32;;;;;;;;;;;6.40;88.00;;;;;;5055027;28;19942;-88
2023/01/19 08:38:00;;;;;;;;;;;6.40;87.40;;;;;;5037579;28;20464;-88
2023/01/19 08:40:27;;;;;;;;;;;6.40;87.40;;;;;;5036313;28;20465;-88
2023/01/19 08:42:52;;;;;;;;;;;6.30;87.90;;;;;;5042041;28;19945;-88
2023/01/19 08:45:18;;;;;;;;;;;6.20;87.50;;;;;;5036070;28;20048;-88
2023/01/19 08:47:43;;;;;;;;;;;6.20;87.00;;;;;;5041511;28;19949;-88
2023/01/19 08:50:09;;;;;;;;;;;6.20;86.90;;;;;;5029699;28;19943;-88
2023/01/19 08:52:35;;;;;;;;;;;6.20;86.70;;;;;;5041962;28;19959;-88
2023/01/19 08:55:00;;;;;;;;;;;6.30;87.00;;;;;;5044941;28;19947;-88
2023/01/19 08:57:26;;;;;;;;;;;6.30;86.40;;;;;;5044444;28;19957;-88
2023/01/19 08:59:52;;;;;;;;;;;6.30;86.10;;;;;;5043039;28;19984;-88
2023/01/19 09:02:17;;;;;;;;;;;6.40;85.90;;;;;;5037126;28;19948;-88
2023/01/19 09:04:43;;;;;;;;;;;6.50;84.50;;;;;;5038911;28;20425;-87
2023/01/19 09:07:08;;;;;;;;;;;6.40;84.10;;;;;;5040861;28;20015;-88
2023/01/19 09:09:36;;;;;;;;;;;6.40;84.20;;;;;;5042350;28;19944;-88
2023/01/19 09:12:02;;;;;;;;;;;6.40;84.10;;;;;;5038071;28;20014;-88
2023/01/19 09:14:27;;;;;;;;;;;6.30;83.60;;;;;;5063122;22;20441;-88
2023/01/19 09:16:55;;;;;;;;;;;6.30;83.30;;;;;;5060541;28;19939;-88
2023/01/19 09:19:20;;;;;;;;;;;6.30;83.30;;;;;;5038451;28;20029;-89
2023/01/19 09:21:46;;;;;;;;;;;6.30;83.10;;;;;;5062166;28;20025;-88
2023/01/19 09:24:13;;;;;;;;;;;6.20;82.80;;;;;;5059651;28;20364;-88
2023/01/19 09:26:39;;;;;;;;;;;6.40;82.80;;;;;;5063563;28;20548;-88
2023/01/19 09:29:05;;;;;;;;;;;6.60;82.50;;;;;;5059382;28;19944;-88
2023/01/19 09:31:30;;;;;;;;;;;6.80;82.60;;;;;;5064927;28;19992;-88
2023/01/19 09:33:56;;;;;;;;;;;6.90;82.70;;;;;;5057980;28;19954;-87
2023/01/19 09:36:21;;;;;;;;;;;6.40;84.60;;;;;;5060336;28;19961;-87
2023/01/19 09:38:47;;;;;;;;;;;6.20;86.00;;;;;;5060670;28;19946;-88
2023/01/19 09:41:18;;;;;;;;;;;6.00;86.30;;;;;;5059863;28;19961;-88
2023/01/19 09:43:46;;;;;;;;;;;5.90;87.00;;;;;;5065002;28;20082;-87
2023/01/19 09:46:14;;;;;;;;;;;5.90;87.50;;;;;;5066512;28;19945;-87
2023/01/19 09:48:52;;;;;;;;;;;5.80;87.80;;;;;;5060179;28;20028;-87
2023/01/19 09:51:22;;;;;;;;;;;5.80;88.10;;;;;;5060970;28;20028;-88
2023/01/19 09:53:50;;;;;;;;;;;6.10;87.30;;;;;;5051947;28;19962;-88
2023/01/19 09:56:16;;;;;;;;;;;6.20;86.40;;;;;;5046421;28;19974;-87
2023/01/19 09:58:42;;;;;;;;;;;6.30;86.20;;;;;;5041768;28;20392;-88
2023/01/19 10:01:27;;;;;;;;;;;6.40;86.10;;;;;;5044245;28;19957;-88
2023/01/19 10:04:04;;;;;;;;;;;6.40;86.20;;;;;;5041028;28;19942;-88
2023/01/19 10:06:30;;;;;;;;;;;6.10;86.10;;;;;;5046013;28;19991;-87
2023/01/19 10:09:15;;;;;;;;;;;5.90;86.50;;;;;;5033533;28;19981;-87
2023/01/19 10:11:47;;;;;;;;;;;5.80;87.20;;;;;;5041756;28;19942;-87
2023/01/19 10:14:24;;;;;;;;;;;5.70;87.80;;;;;;5049109;28;20381;-88
2023/01/19 10:16:55;;;;;;;;;;;5.70;86.80;;;;;;5042928;28;19940;-88
2023/01/19 10:19:21;;;;;;;;;;;5.70;87.50;;;;;;5040123;28;19944;-88
2023/01/19 10:21:48;;;;;;;;;;;5.90;87.40;;;;;;5043119;28;20004;-88
2023/01/19 10:24:24;;;;;;;;;;;6.10;86.40;;;;;;5047577;28;20040;-88
2023/01/19 10:26:51;;;;;;;;;;;6.40;85.20;;;;;;5040768;28;19941;-88
2023/01/19 10:29:17;;;;;;;;;;;6.40;84.90;;;;;;5041193;28;19949;-88
2023/01/19 10:31:43;;;;;;;;;;;6.50;84.40;;;;;;5043634;28;19948;-88
2023/01/19 10:34:17;;;;;;;;;;;6.50;84.20;;;;;;5050004;28;19946;-88
2023/01/19 10:36:44;;;;;;;;;;;6.60;84.10;;;;;;5042692;28;20005;-88
2023/01/19 10:39:12;;;;;;;;;;;6.40;84.20;;;;;;5046367;28;20025;-87
2023/01/19 10:41:42;;;;;;;;;;;6.20;84.60;;;;;;5040386;28;20012;-88
2023/01/19 10:44:09;;;;;;;;;;;6.00;84.50;;;;;;5048531;28;19985;-87
2023/01/19 10:46:45;;;;;;;;;;;5.90;85.10;;;;;;5038042;28;19948;-88
2023/01/19 10:49:26;;;;;;;;;;;6.00;85.40;;;;;;5037111;28;19943;-88
2023/01/19 10:51:51;;;;;;;;;;;6.00;85.30;;;;;;5043150;28;20084;-88
2023/01/19 10:54:18;;;;;;;;;;;6.10;85.50;;;;;;5034385;28;19970;-88
2023/01/19 10:56:49;;;;;;;;;;;6.20;85.90;;;;;;5051615;28;19947;-88
2023/01/19 10:59:35;;;;;;;;;;;6.10;84.50;;;;;;5048568;28;19949;-88
2023/01/19 11:02:09;;;;;;;;;;;6.10;85.10;;;;;;5044181;28;19949;-88
2023/01/19 11:04:35;;;;;;;;;;;6.10;85.00;;;;;;5042783;28;20049;-88
2023/01/19 11:07:12;;;;;;;;;;;6.20;84.30;;;;;;5042141;28;20027;-88
2023/01/19 11:09:38;;;;;;;;;;;6.30;81.80;;;;;;5049940;28;19969;-88
2023/01/19 11:12:03;;;;;;;;;;;6.30;78.40;;;;;;5036861;28;20304;-88
2023/01/19 11:14:30;;;;;;;;;;;6.40;76.80;;;;;;5035277;28;19974;-88
2023/01/19 11:16:56;;;;;;;;;;;6.40;77.70;;;;;;5040567;28;20437;-88
2023/01/19 11:19:25;;;;;;;;;;;6.40;77.10;;;;;;5032593;28;20068;-88
2023/01/19 11:21:51;;;;;;;;;;;6.30;78.50;;;;;;5032806;28;19964;-88
2023/01/19 11:24:17;;;;;;;;;;;6.20;78.80;;;;;;5032576;28;19933;-88
2023/01/19 11:26:45;;;;;;;;;;;6.20;78.70;;;;;;5032784;28;19983;-88
2023/01/19 11:29:16;;;;;;;;;;;6.20;78.90;;;;;;5032587;28;19940;-88
2023/01/19 11:31:42;;;;;;;;;;;6.00;81.10;;;;;;5039013;28;20040;-88
2023/01/19 11:34:26;;;;;;;;;;;5.90;80.40;;;;;;5052501;28;20025;-88
2023/01/19 11:37:02;;;;;;;;;;;5.80;81.40;;;;;;5052432;28;19947;-88
2023/01/19 11:39:29;;;;;;;;;;;5.70;83.40;;;;;;5052385;28;20440;-88
2023/01/19 11:42:00;;;;;;;;;;;5.70;84.00;;;;;;5053142;28;20473;-88
2023/01/19 11:44:32;;;;;;;;;;;5.70;84.30;;;;;;5056058;28;19945;-88
2023/01/19 11:46:59;;;;;;;;;;;5.50;84.40;;;;;;5056008;28;19938;-88
2023/01/19 11:49:32;;;;;;;;;;;5.30;85.10;;;;;;5055962;28;19972;-88
2023/01/19 11:52:06;;;;;;;;;;;5.20;85.90;;;;;;5054936;28;19951;-88
2023/01/19 11:54:35;;;;;;;;;;;5.10;85.70;;;;;;5055813;28;19987;-88
2023/01/19 11:57:05;;;;;;;;;;;5.10;86.40;;;;;;5055727;28;19937;-88
2023/01/19 11:59:30;;;;;;;;;;;5.20;86.80;;;;;;5055756;28;19935;-88
2023/01/19 12:02:01;;;;;;;;;;;5.20;86.70;;;;;;5042006;28;20052;-87
2023/01/19 12:04:29;;;;;;;;;;;5.00;86.50;;;;;;5017976;28;19990;-88
2023/01/19 12:06:56;;;;;;;;;;;4.90;86.50;;;;;;5035699;28;19937;-87
2023/01/19 12:09:31;;;;;;;;;;;4.90;86.50;;;;;;5035599;28;19938;-87
2023/01/19 12:12:00;;;;;;;;;;;4.90;85.80;;;;;;5039843;28;20375;-88
2023/01/19 12:14:30;;;;;;;;;;;5.00;86.00;;;;;;5054668;28;20008;-88
2023/01/19 12:16:57;;;;;;;;;;;5.00;85.40;;;;;;5045466;28;20474;-88
2023/01/19 12:19:34;;;;;;;;;;;5.00;85.50;;;;;;5035948;28;20515;-88
2023/01/19 12:21:59;;;;;;;;;;;5.20;85.40;;;;;;5030030;28;19973;-88
2023/01/19 12:24:48;;;;;;;;;;;5.30;84.50;;;;;;5049629;28;19948;-88
2023/01/19 12:27:17;;;;;;;;;;;5.40;83.50;;;;;;5035527;28;20327;-88
2023/01/19 12:29:44;;;;;;;;;;;5.40;83.40;;;;;;5042174;28;19944;-88
2023/01/19 12:32:12;;;;;;;;;;;5.50;84.10;;;;;;5042333;28;20026;-87
2023/01/19 12:34:38;;;;;;;;;;;5.50;83.60;;;;;;5045541;28;19947;-87
2023/01/19 12:37:05;;;;;;;;;;;5.40;84.00;;;;;;5044054;28;20546;-88
2023/01/19 12:39:32;;;;;;;;;;;5.40;84.50;;;;;;5050920;28;20026;-88
2023/01/19 12:42:06;;;;;;;;;;;5.40;84.60;;;;;;5042242;28;19964;-88
2023/01/19 12:44:32;;;;;;;;;;;5.40;84.60;;;;;;5040298;28;19974;-88
2023/01/19 12:47:23;;;;;;;;;;;5.40;85.00;;;;;;5043737;28;19945;-88
2023/01/19 12:49:50;;;;;;;;;;;5.30;84.80;;;;;;5042206;28;19947;-88
2023/01/19 12:52:18;;;;;;;;;;;5.20;85.00;;;;;;5038377;28;19962;-88
2023/01/19 12:54:56;;;;;;;;;;;5.10;85.60;;;;;;5043154;28;19961;-88
2023/01/19 12:57:24;;;;;;;;;;;5.10;85.60;;;;;;5046906;28;19989;-88
2023/01/19 12:59:57;;;;;;;;;;;5.30;85.60;;;;;;5052536;28;19974;-88
2023/01/19 13:02:22;;;;;;;;;;;5.40;84.90;;;;;;5044911;28;19998;-88
2023/01/19 13:05:23;;;;;;;;;;;5.40;84.70;;;;;;5044789;28;19979;-87
2023/01/19 13:08:01;;;;;;;;;;;5.40;84.60;;;;;;4986069;28;20429;-87
2023/01/19 13:10:45;;;;;;;;;;;5.60;85.00;;;;;;5034013;28;19948;-87
2023/01/19 13:13:18;;;;;;;;;;;5.40;85.60;;;;;;5040013;28;20030;-87
2023/01/19 13:15:43;;;;;;;;;;;5.30;85.70;;;;;;5020919;28;20011;-87
2023/01/19 13:18:15;;;;;;;;;;;5.30;86.30;;;;;;5047321;28;20041;-87
2023/01/19 13:20:47;;;;;;;;;;;5.20;86.60;;;;;;5047442;28;19975;-88
2023/01/19 13:23:13;;;;;;;;;;;5.20;86.70;;;;;;5016451;28;19936;-88
2023/01/19 13:25:40;;;;;;;;;;;5.20;86.30;;;;;;5028301;28;20533;-88
2023/01/19 13:28:07;;;;;;;;;;;5.20;86.60;;;;;;5045719;28;19947;-87
2023/01/19 13:30:33;;;;;;;;;;;5.20;86.90;;;;;;5043966;28;20098;-88
2023/01/19 13:33:04;;;;;;;;;;;5.30;86.60;;;;;;5041104;28;20457;-88
2023/01/19 13:35:29;;;;;;;;;;;5.30;86.60;;;;;;5048364;28;20410;-88
2023/01/19 13:37:56;;;;;;;;;;;5.30;86.90;;;;;;5046376;28;19949;-88
2023/01/19 13:40:30;;;;;;;;;;;5.40;87.10;;;;;;5043860;28;20514;-88
2023/01/19 13:42:56;;;;;;;;;;;5.50;86.60;;;;;;5044452;28;20417;-88
2023/01/19 13:45:30;;;;;;;;;;;5.50;86.00;;;;;;5048119;28;20072;-87
2023/01/19 13:47:56;;;;;;;;;;;5.40;86.20;;;;;;5043243;28;19943;-87
2023/01/19 13:50:23;;;;;;;;;;;5.20;86.20;;;;;;5044573;28;19941;-88
2023/01/19 13:52:52;;;;;;;;;;;5.20;86.00;;;;;;5031757;28;20431;-88
2023/01/19 13:55:19;;;;;;;;;;;5.00;86.60;;;;;;5041385;28;20409;-87
2023/01/19 13:57:45;;;;;;;;;;;5.00;87.20;;;;;;5042705;28;19943;-87
2023/01/19 14:00:11;;;;;;;;;;;5.00;87.20;;;;;;5042306;28;19948;-87
2023/01/19 14:02:40;;;;;;;;;;;4.90;87.10;;;;;;5046283;28;19952;-87
2023/01/19 14:05:19;;;;;;;;;;;4.70;87.30;;;;;;5042382;28;20407;-88
2023/01/19 14:07:45;;;;;;;;;;;4.50;87.20;;;;;;5023731;28;20438;-87
2023/01/19 14:10:15;;;;;;;;;;;4.40;87.80;;;;;;5042074;28;19948;-88
2023/01/19 14:12:41;;;;;;;;;;;4.50;88.10;;;;;;5046942;28;20091;-88
2023/01/19 14:15:13;;;;;;;;;;;4.50;87.90;;;;;;5039767;28;19954;-88
2023/01/19 14:17:39;;;;;;;;;;;4.50;87.70;;;;;;5046371;28;19947;-88
2023/01/19 14:20:05;;;;;;;;;;;4.60;88.00;;;;;;5042697;28;19942;-87
2023/01/19 14:22:38;;;;;;;;;;;4.60;87.60;;;;;;5041537;28;20043;-88
2023/01/19 14:25:20;;;;;;;;;;;4.60;87.70;;;;;;5044985;28;19988;-87
2023/01/19 14:27:45;;;;;;;;;;;4.50;87.40;;;;;;5025627;28;20433;-88
2023/01/19 14:30:19;;;;;;;;;;;4.40;87.30;;;;;;5042329;28;19992;-87
2023/01/19 14:32:46;;;;;;;;;;;4.40;87.50;;;;;;5040195;28;20027;-87
2023/01/19 14:35:14;;;;;;;;;;;4.20;88.10;;;;;;5041592;28;19969;-87
2023/01/19 14:37:48;;;;;;;;;;;4.10;88.60;;;;;;5045988;28;19958;-88
2023/01/19 14:40:17;;;;;;;;;;;4.10;88.60;;;;;;5041538;28;19951;-87
2023/01/19 14:42:51;;;;;;;;;;;4.00;89.00;;;;;;5046765;28;19949;-88
2023/01/19 14:45:18;;;;;;;;;;;3.90;89.10;;;;;;5043419;28;20024;-88